CheckWX is a tool to help pilots better visualize weather data.  It is not intended as a substitute for an official pre-flight weather briefing.

19:15:08 UTC

CYXQ METAR
Beaver Creek Airport
Beaver Creek, , Canada
Current

15 mins ago

CYXQ 191900Z 29009G16KT 2 1/2SM -SN OVC020 M09/M11 A2987 RMK SN4SC4 S 01 SLP176
Observed
Feb-19 @ 19:00 UTC
Wind
  • 290° at 9 KTS
  • Gusting to 16 KTS
Visibility
2 1/2 SM
Flight Rules
IFR
Conditions
Light Snow
Cloud Levels
  • Overcast at 2,000' AGL
Temperature
-9°C / 16°F
Dewpoint
-11°C / 12°F
Humidity
86%
Altimeter
29.87" Hg
Pressure
1017.6 hPa
Previous

1 hour ago

CYXQ 191800Z VRB02KT 2 1/2SM -SN OVC020 M11/M12 A2983 RMK SN4SC4 S O1/ SLP162
Observed
Feb-19 @ 18:00 UTC
Wind
  • Variable at 2 KTS
Visibility
2 1/2 SM
Flight Rules
IFR
Conditions
Light Snow
Cloud Levels
  • Overcast at 2,000' AGL
Temperature
-11°C / 12°F
Dewpoint
-12°C / 10°F
Humidity
92%
Altimeter
29.83" Hg
Pressure
1016.2 hPa
Previous

1 hour ago

CYXQ 191752Z 00000KT 2SM -SN OVC020 M11/M13 A2982 RMK SN5SC3 SLP161
Observed
Feb-19 @ 17:52 UTC
Visibility
2 SM
Flight Rules
IFR
Conditions
Light Snow
Cloud Levels
  • Overcast at 2,000' AGL
Temperature
-11°C / 12°F
Dewpoint
-13°C / 9°F
Humidity
85%
Altimeter
29.82" Hg
Pressure
1016.1 hPa